Terminal Aerodrome Forecast
Issued by NWS Brownsville, TX

Home | Current Version | Previous Version | Text Only | Print | Product List | Glossary On
Versions: 1 2 3 4 5 6 7 8 9 10 11 12 13 14 15 16 17 18 19 20 21 22 23 24 25 26 27 28 29 30 31
000
FTUS44 KBRO 261133
TAFMFE
TAF
KMFE 261133Z 2612/2712 00000KT P6SM SCT025
     FM261500 05006KT P6SM VCSH SCT035
     FM261800 06007KT P6SM VCTS BKN040CB
      TEMPO 2618/2622 2SM TSRA BKN025CB
     FM262200 09011KT P6SM BKN040 OVC200 PROB30 2622/2624 4SM TSRA
      BKN030CB
     FM270000 08007KT P6SM BKN070
     FM270400 03004KT P6SM FEW025=

USA.gov is the U.S. government's official web portal to all federal, state and local government web resources and services.